createdAt,value
2023-05-30T00:00:33.344Z,8.50
2023-05-30T00:03:00.523Z,8.50
2023-05-30T00:05:27.573Z,8.40
2023-05-30T00:07:54.532Z,8.40
2023-05-30T00:10:21.617Z,8.30
2023-05-30T00:12:48.548Z,8.30
2023-05-30T00:15:17.460Z,8.30
2023-05-30T00:17:44.674Z,8.30
2023-05-30T00:20:12.332Z,8.30
2023-05-30T00:22:42.520Z,8.20
2023-05-30T00:25:10.613Z,8.20
2023-05-30T00:27:38.050Z,8.20
2023-05-30T00:30:05.249Z,8.20
2023-05-30T00:32:32.164Z,8.20
2023-05-30T00:34:59.070Z,8.10
2023-05-30T00:37:26.394Z,8.10
2023-05-30T00:39:53.269Z,8.10
2023-05-30T00:42:20.226Z,8.10
2023-05-30T00:44:47.217Z,8.00
2023-05-30T00:47:14.678Z,8.00
2023-05-30T00:49:42.243Z,8.00
2023-05-30T00:52:09.773Z,7.90
2023-05-30T00:54:38.767Z,7.90
2023-05-30T00:57:06.775Z,7.90
2023-05-30T00:59:33.962Z,7.80
2023-05-30T01:02:00.960Z,7.80
2023-05-30T01:04:27.871Z,7.80
2023-05-30T01:06:55.147Z,7.80
2023-05-30T01:09:22.380Z,7.80
2023-05-30T01:11:49.289Z,7.80
2023-05-30T01:14:27.226Z,7.70
2023-05-30T01:17:01.860Z,7.60
2023-05-30T01:19:55.596Z,7.50
2023-05-30T01:22:50.525Z,7.50
2023-05-30T01:25:27.018Z,7.40
2023-05-30T01:28:07.995Z,7.40
2023-05-30T01:30:38.704Z,7.40
2023-05-30T01:33:08.550Z,7.40
2023-05-30T01:35:35.927Z,7.40
2023-05-30T01:38:03.261Z,7.30
2023-05-30T01:40:30.913Z,7.30
2023-05-30T01:43:07.684Z,7.40
2023-05-30T01:45:56.221Z,7.40
2023-05-30T01:48:35.835Z,7.30
2023-05-30T01:51:08.212Z,7.30
2023-05-30T01:53:43.467Z,7.30
2023-05-30T01:56:14.658Z,7.40
2023-05-30T01:58:46.220Z,7.40
2023-05-30T02:01:13.878Z,7.30
2023-05-30T02:03:40.951Z,7.30
2023-05-30T02:06:07.944Z,7.20
2023-05-30T02:08:35.000Z,7.20
2023-05-30T02:11:01.889Z,7.20
2023-05-30T02:13:28.926Z,7.10
2023-05-30T02:15:55.830Z,7.10
2023-05-30T02:18:22.819Z,7.10
2023-05-30T02:20:49.979Z,7.10
2023-05-30T02:23:17.162Z,7.10
2023-05-30T02:25:44.152Z,6.90
2023-05-30T02:28:11.091Z,6.90
2023-05-30T02:30:38.894Z,6.90
2023-05-30T02:33:05.982Z,6.90
2023-05-30T02:35:32.886Z,7.00
2023-05-30T02:37:59.922Z,6.90
2023-05-30T02:40:26.828Z,7.00
2023-05-30T02:42:53.743Z,7.00
2023-05-30T02:45:20.766Z,7.00
2023-05-30T02:47:47.768Z,7.00
2023-05-30T02:50:14.692Z,7.10
2023-05-30T02:52:41.903Z,7.20
2023-05-30T02:55:09.240Z,7.30
2023-05-30T02:57:36.209Z,7.30
2023-05-30T03:00:03.680Z,7.40
2023-05-30T03:02:31.609Z,7.50
2023-05-30T03:04:59.263Z,7.50
2023-05-30T03:07:28.127Z,7.60
2023-05-30T03:09:55.034Z,7.70
2023-05-30T03:12:24.011Z,7.90
2023-05-30T03:14:51.020Z,8.10
2023-05-30T03:17:18.770Z,8.30
2023-05-30T03:19:45.909Z,8.40
2023-05-30T03:22:12.802Z,8.60
2023-05-30T03:24:40.544Z,8.70
2023-05-30T03:27:08.497Z,8.70
2023-05-30T03:29:35.412Z,8.80
2023-05-30T03:32:02.491Z,8.90
2023-05-30T03:34:32.256Z,9.00
2023-05-30T03:36:59.787Z,9.10
2023-05-30T03:39:26.853Z,9.10
2023-05-30T03:41:53.826Z,9.20
2023-05-30T03:44:22.932Z,9.30
2023-05-30T03:46:49.963Z,9.40
2023-05-30T03:49:16.943Z,9.50
2023-05-30T03:51:43.916Z,9.60
2023-05-30T03:54:11.192Z,9.60
2023-05-30T03:56:38.174Z,9.70
2023-05-30T03:59:05.123Z,9.80
2023-05-30T04:01:32.135Z,10.00
2023-05-30T04:03:59.204Z,10.00
2023-05-30T04:06:26.273Z,10.10
2023-05-30T04:08:53.495Z,10.10
2023-05-30T04:11:20.561Z,10.30
2023-05-30T04:13:47.672Z,10.30
2023-05-30T04:16:14.613Z,10.40
2023-05-30T04:18:45.121Z,10.40
2023-05-30T04:21:15.644Z,10.50
2023-05-30T04:23:43.019Z,10.50
2023-05-30T04:26:11.117Z,10.50
2023-05-30T04:28:39.452Z,10.60
2023-05-30T04:31:20.477Z,10.60
2023-05-30T04:33:50.199Z,10.60
2023-05-30T04:36:20.110Z,10.70
2023-05-30T04:38:51.053Z,10.70
2023-05-30T04:41:26.388Z,10.70
2023-05-30T04:43:55.625Z,10.80
2023-05-30T04:46:23.124Z,10.80
2023-05-30T04:48:54.936Z,10.80
2023-05-30T04:51:22.630Z,10.90
2023-05-30T04:53:51.083Z,10.80
2023-05-30T04:56:18.408Z,10.90
2023-05-30T04:58:46.426Z,10.90
2023-05-30T05:01:15.066Z,10.90
2023-05-30T05:03:42.820Z,11.00
2023-05-30T05:06:11.202Z,11.00
2023-05-30T05:08:38.801Z,11.00
2023-05-30T05:11:07.401Z,11.00
2023-05-30T05:13:35.117Z,11.00
2023-05-30T05:16:02.914Z,11.00
2023-05-30T05:18:29.849Z,11.10
2023-05-30T05:20:57.212Z,11.10
2023-05-30T05:23:24.621Z,11.10
2023-05-30T05:25:51.804Z,11.10
2023-05-30T05:28:18.806Z,11.20
2023-05-30T05:30:46.601Z,11.20
2023-05-30T05:33:14.669Z,11.20
2023-05-30T05:35:42.186Z,11.20
2023-05-30T05:38:09.358Z,11.20
2023-05-30T05:40:36.844Z,11.30
2023-05-30T05:43:03.821Z,11.20
2023-05-30T05:45:30.831Z,11.20
2023-05-30T05:47:57.857Z,11.20
2023-05-30T05:50:24.836Z,11.20
2023-05-30T05:52:51.773Z,11.30
2023-05-30T05:55:18.690Z,11.30
2023-05-30T05:57:45.883Z,11.40
2023-05-30T06:00:13.387Z,11.40
2023-05-30T06:02:40.550Z,11.50
2023-05-30T06:05:08.303Z,11.50
2023-05-30T06:07:35.865Z,11.50
2023-05-30T06:10:02.899Z,11.50
2023-05-30T06:12:29.867Z,11.50
2023-05-30T06:14:56.778Z,11.60
2023-05-30T06:17:23.794Z,11.60
2023-05-30T06:19:51.862Z,11.70
2023-05-30T06:22:19.526Z,11.80
2023-05-30T06:24:48.129Z,11.80
2023-05-30T06:27:15.557Z,11.80
2023-05-30T06:29:43.102Z,11.80
2023-05-30T06:32:16.256Z,11.90
2023-05-30T06:34:45.788Z,11.90
2023-05-30T06:37:16.730Z,12.00
2023-05-30T06:39:43.948Z,12.00
2023-05-30T06:42:11.738Z,12.10
2023-05-30T06:44:38.850Z,12.10
2023-05-30T06:47:06.482Z,12.20
2023-05-30T06:49:33.612Z,12.30
2023-05-30T06:52:00.752Z,12.30
2023-05-30T06:54:28.446Z,12.40
2023-05-30T06:56:55.402Z,12.40
2023-05-30T06:59:22.317Z,12.50
2023-05-30T07:01:49.422Z,12.50
2023-05-30T07:04:16.420Z,12.50
2023-05-30T07:06:48.628Z,12.50
2023-05-30T07:09:15.575Z,12.50
2023-05-30T07:11:42.545Z,12.60
2023-05-30T07:14:09.493Z,12.60
2023-05-30T07:16:36.607Z,12.60
2023-05-30T07:19:12.332Z,12.60
2023-05-30T07:21:40.582Z,12.60
2023-05-30T07:24:07.660Z,12.70
2023-05-30T07:26:35.798Z,12.70
2023-05-30T07:29:03.319Z,12.70
2023-05-30T07:31:30.333Z,12.70
2023-05-30T07:33:57.999Z,12.70
2023-05-30T07:36:25.061Z,12.90
2023-05-30T07:38:52.298Z,13.00
2023-05-30T07:41:19.349Z,13.00
2023-05-30T07:43:46.387Z,12.90
2023-05-30T07:46:13.676Z,13.00
2023-05-30T07:48:42.240Z,13.10
2023-05-30T07:51:10.449Z,13.10
2023-05-30T07:53:38.103Z,13.10
2023-05-30T07:56:05.236Z,13.10
2023-05-30T07:58:32.206Z,13.20
2023-05-30T08:01:00.597Z,13.20
2023-05-30T08:03:27.807Z,13.30
2023-05-30T08:05:54.833Z,13.40
2023-05-30T08:08:21.789Z,13.40
2023-05-30T08:10:49.206Z,13.50
2023-05-30T08:13:16.266Z,13.50
2023-05-30T08:15:45.049Z,13.40
2023-05-30T08:18:12.992Z,13.50
2023-05-30T08:20:41.599Z,13.50
2023-05-30T08:23:08.570Z,13.50
2023-05-30T08:25:38.193Z,13.70
2023-05-30T08:28:06.172Z,13.60
2023-05-30T08:30:35.732Z,13.60
2023-05-30T08:33:03.177Z,13.70
2023-05-30T08:35:30.562Z,13.60
2023-05-30T08:37:59.929Z,13.70
2023-05-30T08:40:27.820Z,13.70
2023-05-30T08:42:54.976Z,13.80
2023-05-30T08:45:22.231Z,13.90
2023-05-30T08:47:53.920Z,14.00
2023-05-30T08:50:22.305Z,14.10
2023-05-30T08:52:54.072Z,14.10
2023-05-30T08:55:31.868Z,14.20
2023-05-30T08:58:24.214Z,14.10
2023-05-30T09:00:53.560Z,14.20
2023-05-30T09:03:21.507Z,14.00
2023-05-30T09:05:49.135Z,14.00
2023-05-30T09:21:02.458Z,14.40
2023-05-30T09:23:30.694Z,14.40
2023-05-30T09:26:01.472Z,14.60
2023-05-30T09:28:29.616Z,14.70
2023-05-30T09:31:00.912Z,14.60
2023-05-30T09:33:49.434Z,14.70
2023-05-30T09:36:27.593Z,14.90
2023-05-30T09:39:08.354Z,14.90
2023-05-30T09:41:36.190Z,14.90
2023-05-30T09:44:07.267Z,14.90
2023-05-30T09:46:36.737Z,14.90
2023-05-30T09:49:21.844Z,14.80
2023-05-30T09:51:51.526Z,14.80
2023-05-30T09:54:20.725Z,15.00
2023-05-30T09:56:47.701Z,15.10
2023-05-30T09:59:16.011Z,15.10
2023-05-30T10:01:47.899Z,15.10
2023-05-30T10:04:17.582Z,15.10
2023-05-30T10:06:49.531Z,15.00
2023-05-30T10:09:16.997Z,14.90
2023-05-30T10:11:45.302Z,14.90
2023-05-30T10:14:13.153Z,15.20
2023-05-30T10:16:55.048Z,15.40
2023-05-30T10:19:54.845Z,15.50
2023-05-30T10:22:24.969Z,15.60
2023-05-30T10:24:52.769Z,15.70
2023-05-30T10:27:25.457Z,15.80
2023-05-30T10:30:07.993Z,15.60
2023-05-30T10:32:38.254Z,15.60
2023-05-30T10:35:20.249Z,15.60
2023-05-30T10:37:48.997Z,15.80
2023-05-30T10:40:32.456Z,15.80
2023-05-30T10:43:22.407Z,16.00
2023-05-30T10:46:08.278Z,16.00
2023-05-30T10:49:11.244Z,16.10
2023-05-30T10:52:00.166Z,16.10
2023-05-30T10:54:31.489Z,16.20
2023-05-30T10:56:59.946Z,16.10
2023-05-30T10:59:27.087Z,16.30
2023-05-30T11:02:07.744Z,16.20
2023-05-30T11:04:42.051Z,16.10
2023-05-30T11:07:12.482Z,16.20
2023-05-30T11:09:43.386Z,16.40
2023-05-30T11:12:23.189Z,16.60
2023-05-30T11:14:57.861Z,16.60
2023-05-30T11:17:39.080Z,16.70
2023-05-30T11:20:23.228Z,16.50
2023-05-30T11:23:02.871Z,16.50
2023-05-30T11:25:34.229Z,16.70
2023-05-30T11:28:13.903Z,16.60
2023-05-30T11:30:50.350Z,16.80
2023-05-30T11:33:19.088Z,17.00
2023-05-30T11:35:50.454Z,16.80
2023-05-30T11:38:21.734Z,16.80
2023-05-30T11:40:50.648Z,16.80
2023-05-30T11:43:18.508Z,17.00
2023-05-30T11:45:51.197Z,17.00
2023-05-30T11:48:19.263Z,17.00
2023-05-30T11:50:46.757Z,17.10
2023-05-30T11:53:15.893Z,17.20
2023-05-30T11:55:49.672Z,17.20
2023-05-30T11:58:17.774Z,17.30
2023-05-30T12:00:45.855Z,17.20
2023-05-30T12:03:19.997Z,17.20
2023-05-30T12:05:48.372Z,17.20
2023-05-30T12:08:18.299Z,17.30
2023-05-30T12:10:45.462Z,17.30
2023-05-30T12:13:12.738Z,17.60
2023-05-30T12:15:40.235Z,17.60
2023-05-30T12:18:08.207Z,17.60
2023-05-30T12:20:57.456Z,17.50
2023-05-30T12:23:25.793Z,17.40
2023-05-30T12:25:56.836Z,17.40
2023-05-30T12:28:24.409Z,17.50
2023-05-30T12:30:55.241Z,17.60
2023-05-30T12:33:23.291Z,17.80
2023-05-30T12:35:55.609Z,17.70
2023-05-30T12:38:23.171Z,17.80
2023-05-30T12:40:51.450Z,17.90
2023-05-30T12:43:26.732Z,17.90
2023-05-30T12:45:53.683Z,18.00
2023-05-30T12:48:20.845Z,18.00
2023-05-30T12:50:47.954Z,18.10
2023-05-30T12:53:14.923Z,17.90
2023-05-30T12:55:41.851Z,17.70
2023-05-30T12:58:08.748Z,17.80
2023-05-30T13:00:37.506Z,18.00
2023-05-30T13:03:05.037Z,18.10
2023-05-30T13:05:32.333Z,18.30
2023-05-30T13:07:59.188Z,18.40
2023-05-30T13:10:26.138Z,18.30
2023-05-30T13:12:53.078Z,18.30
2023-05-30T13:15:20.147Z,18.30
2023-05-30T13:17:47.092Z,18.40
2023-05-30T13:20:14.406Z,18.40
2023-05-30T13:22:41.399Z,18.50
2023-05-30T13:25:08.795Z,18.40
2023-05-30T13:27:35.811Z,18.40
2023-05-30T13:30:02.943Z,18.30
2023-05-30T13:32:29.892Z,18.30
2023-05-30T13:34:56.803Z,18.30
2023-05-30T13:37:23.903Z,18.50
2023-05-30T13:39:50.988Z,18.50
2023-05-30T13:42:18.077Z,18.60
2023-05-30T13:44:45.318Z,18.80
2023-05-30T13:47:12.280Z,18.90
2023-05-30T13:49:40.351Z,18.90
2023-05-30T13:52:08.992Z,18.90
2023-05-30T13:54:37.237Z,18.90
2023-05-30T13:57:04.491Z,19.00
2023-05-30T13:59:31.444Z,18.90
2023-05-30T14:02:00.164Z,18.90
2023-05-30T14:04:27.566Z,18.90
2023-05-30T14:06:55.777Z,18.90
2023-05-30T14:09:25.413Z,19.10
2023-05-30T14:11:52.485Z,19.10
2023-05-30T14:14:20.105Z,19.10
2023-05-30T14:16:47.335Z,19.00
2023-05-30T14:19:14.392Z,19.00
2023-05-30T14:21:42.256Z,19.20
2023-05-30T14:24:09.291Z,19.00
2023-05-30T14:26:36.215Z,18.80
2023-05-30T14:29:03.868Z,18.80
2023-05-30T14:31:31.215Z,18.60
2023-05-30T14:33:58.489Z,18.80
2023-05-30T14:36:25.682Z,19.00
2023-05-30T14:38:52.677Z,19.20
2023-05-30T14:41:19.688Z,19.20
2023-05-30T14:43:46.669Z,19.10
2023-05-30T14:46:13.721Z,19.30
2023-05-30T14:48:40.712Z,19.40
2023-05-30T14:51:07.579Z,19.50
2023-05-30T14:53:35.718Z,19.40
2023-05-30T14:56:03.706Z,19.40
2023-05-30T14:58:30.746Z,19.30
2023-05-30T15:00:57.794Z,19.40
2023-05-30T15:03:25.272Z,19.40
2023-05-30T15:05:52.388Z,19.40
2023-05-30T15:08:19.371Z,19.50
2023-05-30T15:10:46.421Z,19.70
2023-05-30T15:13:14.051Z,19.90
2023-05-30T15:15:41.009Z,20.10
2023-05-30T15:18:07.974Z,20.10
2023-05-30T15:20:35.025Z,19.90
2023-05-30T15:23:02.033Z,19.90
2023-05-30T15:25:28.929Z,19.80
2023-05-30T15:27:56.593Z,20.00
2023-05-30T15:30:24.735Z,20.30
2023-05-30T15:32:53.348Z,20.50
2023-05-30T15:35:20.557Z,20.20
2023-05-30T15:37:47.580Z,20.30
2023-05-30T15:40:14.545Z,20.30
2023-05-30T15:42:41.442Z,20.50
2023-05-30T15:45:08.860Z,20.70
2023-05-30T15:47:35.899Z,20.50
2023-05-30T15:50:03.253Z,20.50
2023-05-30T15:52:30.359Z,20.50
2023-05-30T15:54:57.289Z,20.80
2023-05-30T15:57:25.766Z,20.70
2023-05-30T15:59:52.775Z,20.70
2023-05-30T16:02:19.812Z,20.80
2023-05-30T16:04:46.837Z,20.50
2023-05-30T16:07:16.947Z,20.30
2023-05-30T16:09:43.876Z,20.30
2023-05-30T16:12:10.968Z,20.50
2023-05-30T16:14:38.001Z,20.50
2023-05-30T16:17:08.160Z,20.50
2023-05-30T16:19:35.128Z,20.30
2023-05-30T16:22:02.014Z,20.30
2023-05-30T16:24:29.088Z,20.00
2023-05-30T16:26:55.995Z,20.00
2023-05-30T16:29:23.100Z,19.90
2023-05-30T16:31:50.612Z,19.90
2023-05-30T16:34:17.542Z,19.70
2023-05-30T16:36:44.504Z,19.80
2023-05-30T16:39:13.216Z,19.80
2023-05-30T16:41:40.520Z,19.70
2023-05-30T16:44:07.453Z,19.70
2023-05-30T16:46:35.500Z,19.60
2023-05-30T16:49:02.550Z,19.60
2023-05-30T16:51:29.575Z,19.50
2023-05-30T16:53:56.496Z,19.40
2023-05-30T16:56:23.422Z,19.30
2023-05-30T16:58:50.603Z,19.30
2023-05-30T17:01:17.846Z,19.20
2023-05-30T17:03:44.940Z,19.20
2023-05-30T17:06:12.097Z,19.20
2023-05-30T17:08:39.635Z,19.10
2023-05-30T17:11:06.716Z,19.10
2023-05-30T17:13:34.337Z,19.00
2023-05-30T17:16:01.871Z,18.90
2023-05-30T17:18:28.902Z,18.80
2023-05-30T17:20:58.615Z,18.70
2023-05-30T17:23:27.729Z,18.70
2023-05-30T17:26:02.141Z,18.50
2023-05-30T17:28:29.971Z,18.50
2023-05-30T17:30:56.956Z,18.40
2023-05-30T17:33:23.930Z,18.30
2023-05-30T17:35:51.485Z,18.20
2023-05-30T17:38:18.365Z,18.20
2023-05-30T17:40:45.438Z,18.20
2023-05-30T17:43:12.366Z,18.10
2023-05-30T17:45:39.370Z,18.10
2023-05-30T17:48:11.573Z,18.00
2023-05-30T17:50:39.631Z,17.90
2023-05-30T17:53:07.371Z,17.90
2023-05-30T17:55:34.593Z,17.80
2023-05-30T17:58:01.899Z,17.70
2023-05-30T18:00:30.633Z,17.70
2023-05-30T18:02:58.236Z,17.60
2023-05-30T18:05:25.780Z,17.50
2023-05-30T18:07:53.028Z,17.50
2023-05-30T18:10:19.975Z,17.40
2023-05-30T18:12:46.850Z,17.30
2023-05-30T18:15:14.411Z,17.20
2023-05-30T18:17:41.505Z,17.10
2023-05-30T18:20:09.082Z,17.00
2023-05-30T18:22:36.525Z,16.90
2023-05-30T18:25:03.686Z,16.80
2023-05-30T18:27:30.718Z,16.80
2023-05-30T18:29:57.669Z,16.70
2023-05-30T18:32:25.185Z,16.70
2023-05-30T18:34:52.241Z,16.70
2023-05-30T18:37:20.360Z,16.60
2023-05-30T18:39:49.945Z,16.60
2023-05-30T18:42:17.081Z,16.60
2023-05-30T18:44:44.057Z,16.50
2023-05-30T18:47:11.832Z,16.50
2023-05-30T18:49:39.551Z,16.40
2023-05-30T18:52:06.984Z,16.30
2023-05-30T18:54:35.211Z,16.30
2023-05-30T18:57:02.998Z,16.20
2023-05-30T18:59:30.588Z,16.10
2023-05-30T19:01:57.857Z,16.10
2023-05-30T19:04:24.939Z,16.10
2023-05-30T19:06:56.961Z,16.10
2023-05-30T19:09:24.414Z,16.00
2023-05-30T19:11:51.624Z,15.90
2023-05-30T19:14:18.665Z,15.90
2023-05-30T19:16:45.737Z,15.80
2023-05-30T19:19:12.764Z,15.70
2023-05-30T19:21:39.816Z,15.70
2023-05-30T19:24:06.977Z,15.60
2023-05-30T19:26:34.025Z,15.60
2023-05-30T19:29:01.036Z,15.50
2023-05-30T19:31:28.128Z,15.40
2023-05-30T19:33:55.112Z,15.30
2023-05-30T19:36:22.075Z,15.30
2023-05-30T19:38:49.019Z,15.20
2023-05-30T19:41:16.506Z,15.20
2023-05-30T19:43:43.606Z,15.00
2023-05-30T19:46:12.184Z,14.90
2023-05-30T19:48:39.661Z,14.80
2023-05-30T19:51:06.683Z,14.70
2023-05-30T19:53:33.704Z,14.70
2023-05-30T19:56:01.033Z,14.60
2023-05-30T19:58:28.044Z,14.60
2023-05-30T20:00:55.175Z,14.60
2023-05-30T20:03:23.590Z,14.50
2023-05-30T20:05:50.767Z,14.50
2023-05-30T20:08:17.704Z,14.50
2023-05-30T20:10:44.859Z,14.40
2023-05-30T20:13:11.835Z,14.30
2023-05-30T20:15:38.914Z,14.30
2023-05-30T20:18:08.711Z,14.20
2023-05-30T20:20:36.119Z,14.10
2023-05-30T20:23:03.453Z,14.00
2023-05-30T20:25:30.766Z,14.00
2023-05-30T20:27:57.706Z,13.90
2023-05-30T20:30:25.068Z,13.90
2023-05-30T20:32:52.080Z,13.80
2023-05-30T20:35:19.272Z,13.80
2023-05-30T20:37:46.213Z,13.80
2023-05-30T20:40:13.478Z,13.70
2023-05-30T20:42:41.601Z,13.70
2023-05-30T20:45:09.663Z,13.70
2023-05-30T20:47:36.734Z,13.70
2023-05-30T20:50:05.164Z,13.60
2023-05-30T20:52:32.491Z,13.60
2023-05-30T20:54:59.546Z,13.50
2023-05-30T20:57:26.832Z,13.50
2023-05-30T20:59:54.681Z,13.40
2023-05-30T21:02:21.997Z,13.40
2023-05-30T21:04:49.766Z,13.30
2023-05-30T21:07:16.756Z,13.30
2023-05-30T21:09:43.869Z,13.30
2023-05-30T21:12:11.410Z,13.20
2023-05-30T21:14:38.945Z,13.20
2023-05-30T21:17:06.545Z,13.10
2023-05-30T21:19:33.450Z,13.10
2023-05-30T21:22:00.426Z,13.00
2023-05-30T21:24:27.355Z,13.00
2023-05-30T21:26:54.508Z,13.00
2023-05-30T21:29:21.600Z,13.00
2023-05-30T21:31:48.565Z,12.90
2023-05-30T21:34:15.573Z,12.90
2023-05-30T21:36:42.510Z,12.90
2023-05-30T21:39:09.449Z,12.80
2023-05-30T21:41:36.400Z,12.80
2023-05-30T21:44:03.951Z,12.80
2023-05-30T21:46:31.069Z,12.70
2023-05-30T21:48:58.292Z,12.70
2023-05-30T21:51:25.464Z,12.60
2023-05-30T21:54:06.445Z,12.60
2023-05-30T21:56:34.414Z,12.60
2023-05-30T21:59:01.401Z,12.50
2023-05-30T22:01:28.572Z,12.50
2023-05-30T22:03:55.817Z,12.50
2023-05-30T22:06:22.970Z,12.40
2023-05-30T22:08:52.101Z,12.40
2023-05-30T22:11:19.170Z,12.40
2023-05-30T22:13:46.346Z,12.40
2023-05-30T22:16:13.313Z,12.30
2023-05-30T22:18:40.531Z,12.30
2023-05-30T22:21:07.472Z,12.30
2023-05-30T22:23:34.467Z,12.20
2023-05-30T22:26:01.414Z,12.20
2023-05-30T22:28:28.461Z,12.10
2023-05-30T22:30:55.548Z,12.10
2023-05-30T22:33:22.451Z,12.00
2023-05-30T22:35:49.362Z,12.00
2023-05-30T22:38:16.499Z,12.00
2023-05-30T22:40:43.546Z,12.00
2023-05-30T22:43:10.509Z,12.00
2023-05-30T22:45:37.486Z,11.90
2023-05-30T22:48:04.629Z,11.80
2023-05-30T22:50:31.648Z,11.80
2023-05-30T22:52:58.540Z,11.80
2023-05-30T22:55:25.463Z,11.70
2023-05-30T22:57:52.452Z,11.70
2023-05-30T23:00:19.558Z,11.70
2023-05-30T23:02:46.949Z,11.70
2023-05-30T23:05:14.030Z,11.60
2023-05-30T23:07:41.065Z,11.60
2023-05-30T23:10:08.814Z,11.60
2023-05-30T23:12:35.780Z,11.50
2023-05-30T23:15:02.776Z,11.50
2023-05-30T23:17:29.727Z,11.60
2023-05-30T23:19:56.824Z,11.60
2023-05-30T23:22:23.821Z,11.60
2023-05-30T23:24:50.941Z,11.50
2023-05-30T23:27:17.956Z,11.50
2023-05-30T23:29:44.893Z,11.50
2023-05-30T23:32:11.773Z,11.50
2023-05-30T23:34:38.657Z,11.50
2023-05-30T23:37:05.720Z,11.50
2023-05-30T23:39:32.666Z,11.40
2023-05-30T23:41:59.645Z,11.40
2023-05-30T23:44:26.641Z,11.40
2023-05-30T23:46:53.759Z,11.40
2023-05-30T23:49:20.916Z,11.40
2023-05-30T23:51:48.633Z,11.30
2023-05-30T23:54:15.745Z,11.30
2023-05-30T23:56:42.744Z,11.40
2023-05-30T23:59:09.753Z,11.40
